createdAt,value
2023-05-07T00:01:13.320Z,85.39
2023-05-07T00:03:40.182Z,85.69
2023-05-07T00:06:07.091Z,85.79
2023-05-07T00:08:33.992Z,85.68
2023-05-07T00:11:00.375Z,85.71
2023-05-07T00:13:26.888Z,85.57
2023-05-07T00:15:53.382Z,85.78
2023-05-07T00:18:22.066Z,85.99
2023-05-07T00:20:48.431Z,86.11
2023-05-07T00:23:14.778Z,86.56
2023-05-07T00:25:41.148Z,86.60
2023-05-07T00:28:07.559Z,86.39
2023-05-07T00:30:33.899Z,86.51
2023-05-07T00:33:00.340Z,86.78
2023-05-07T00:35:27.004Z,86.83
2023-05-07T00:37:53.369Z,86.35
2023-05-07T00:40:19.806Z,86.02
2023-05-07T00:42:48.135Z,85.31
2023-05-07T00:45:15.074Z,85.73
2023-05-07T00:47:42.378Z,85.29
2023-05-07T00:50:10.984Z,85.11
2023-05-07T00:52:38.297Z,85.58
2023-05-07T00:55:07.126Z,85.68
2023-05-07T00:57:37.721Z,85.79
2023-05-07T01:00:05.902Z,85.77
2023-05-07T01:02:32.379Z,85.71
2023-05-07T01:04:58.995Z,86.31
2023-05-07T01:07:26.038Z,86.16
2023-05-07T01:09:52.722Z,86.34
2023-05-07T01:12:19.420Z,86.31
2023-05-07T01:14:46.006Z,86.22
2023-05-07T01:17:12.493Z,86.58
2023-05-07T01:19:38.871Z,86.44
2023-05-07T01:22:10.298Z,86.47
2023-05-07T01:24:38.130Z,86.58
2023-05-07T01:27:05.315Z,86.61
2023-05-07T01:29:31.751Z,87.02
2023-05-07T01:32:00.616Z,87.21
2023-05-07T01:34:31.189Z,87.36
2023-05-07T01:36:58.984Z,87.10
2023-05-07T01:39:26.873Z,87.24
2023-05-07T01:41:57.406Z,87.13
2023-05-07T01:44:25.224Z,87.19
2023-05-07T01:46:51.914Z,87.01
2023-05-07T01:49:18.990Z,86.90
2023-05-07T01:51:45.545Z,87.04
2023-05-07T01:54:12.391Z,87.01
2023-05-07T01:56:38.909Z,87.12
2023-05-07T01:59:06.051Z,86.68
2023-05-07T02:01:32.685Z,86.63
2023-05-07T02:03:59.144Z,86.38
2023-05-07T02:06:25.796Z,85.93
2023-05-07T02:08:52.306Z,85.80
2023-05-07T02:11:18.708Z,85.42
2023-05-07T02:13:45.147Z,85.99
2023-05-07T02:16:11.837Z,85.90
2023-05-07T02:18:38.593Z,86.08
2023-05-07T02:21:04.999Z,86.14
2023-05-07T02:23:31.416Z,86.28
2023-05-07T02:25:57.873Z,86.65
2023-05-07T02:28:24.684Z,86.20
2023-05-07T02:30:51.560Z,86.47
2023-05-07T02:33:17.987Z,86.50
2023-05-07T02:35:44.349Z,86.30
2023-05-07T02:38:11.752Z,86.42
2023-05-07T02:40:41.025Z,86.93
2023-05-07T02:43:07.504Z,86.60
2023-05-07T02:45:34.440Z,86.89
2023-05-07T02:48:00.937Z,86.58
2023-05-07T02:50:28.037Z,86.03
2023-05-07T02:52:54.795Z,86.33
2023-05-07T02:55:21.303Z,86.46
2023-05-07T02:57:47.741Z,86.50
2023-05-07T03:00:18.909Z,86.45
2023-05-07T03:02:46.194Z,86.46
2023-05-07T03:05:13.565Z,86.58
2023-05-07T03:07:40.028Z,86.62
2023-05-07T03:10:07.233Z,86.93
2023-05-07T03:12:33.745Z,87.10
2023-05-07T03:15:00.286Z,87.06
2023-05-07T03:17:26.748Z,87.25
2023-05-07T03:19:53.146Z,87.17
2023-05-07T03:22:19.636Z,86.98
2023-05-07T03:24:46.086Z,87.38
2023-05-07T03:27:12.507Z,87.24
2023-05-07T03:29:38.877Z,86.69
2023-05-07T03:32:05.487Z,87.09
2023-05-07T03:34:31.999Z,87.08
2023-05-07T03:36:58.337Z,87.51
2023-05-07T03:39:24.718Z,87.40
2023-05-07T03:41:51.203Z,87.58
2023-05-07T03:44:17.538Z,87.02
2023-05-07T03:46:44.055Z,87.24
2023-05-07T03:49:11.733Z,86.96
2023-05-07T03:51:38.118Z,86.94
2023-05-07T03:54:04.767Z,87.02
2023-05-07T03:56:32.068Z,86.97
2023-05-07T03:58:58.470Z,86.72
2023-05-07T04:01:25.230Z,86.87
2023-05-07T04:03:51.785Z,86.87
2023-05-07T04:06:18.516Z,86.66
2023-05-07T04:08:44.991Z,86.76
2023-05-07T04:11:11.385Z,86.91
2023-05-07T04:13:40.497Z,86.92
2023-05-07T04:16:07.340Z,86.66
2023-05-07T04:18:33.753Z,86.75
2023-05-07T04:21:00.182Z,86.53
2023-05-07T04:23:26.635Z,86.26
2023-05-07T04:25:52.985Z,85.79
2023-05-07T04:28:19.341Z,86.39
2023-05-07T04:30:45.773Z,86.58
2023-05-07T04:33:12.667Z,86.68
2023-05-07T04:35:39.135Z,86.58
2023-05-07T04:38:05.479Z,86.62
2023-05-07T04:40:31.982Z,87.13
2023-05-07T04:42:58.367Z,87.08
2023-05-07T04:45:24.759Z,86.63
2023-05-07T04:47:51.196Z,86.15
2023-05-07T04:50:18.652Z,86.79
2023-05-07T04:52:45.083Z,86.87
2023-05-07T04:55:11.727Z,87.55
2023-05-07T04:57:40.609Z,87.47
2023-05-07T05:00:09.606Z,87.55
2023-05-07T05:02:36.231Z,87.38
2023-05-07T05:05:03.294Z,87.38
2023-05-07T05:07:29.660Z,86.92
2023-05-07T05:09:56.519Z,86.79
2023-05-07T05:12:23.146Z,87.04
2023-05-07T05:14:49.591Z,87.02
2023-05-07T05:17:15.983Z,87.00
2023-05-07T05:19:42.393Z,86.90
2023-05-07T05:22:08.782Z,86.99
2023-05-07T05:24:35.098Z,86.83
2023-05-07T05:27:02.296Z,85.92
2023-05-07T05:29:28.698Z,85.05
2023-05-07T05:31:55.121Z,84.09
2023-05-07T05:34:22.719Z,83.90
2023-05-07T05:36:49.335Z,84.08
2023-05-07T05:39:15.801Z,83.90
2023-05-07T05:41:42.261Z,84.16
2023-05-07T05:44:08.717Z,84.52
2023-05-07T05:46:37.172Z,84.44
2023-05-07T05:49:03.732Z,84.23
2023-05-07T05:51:30.109Z,84.46
2023-05-07T05:53:56.473Z,83.89
2023-05-07T05:56:22.924Z,83.61
2023-05-07T05:58:49.380Z,83.48
2023-05-07T06:01:15.981Z,83.59
2023-05-07T06:03:42.336Z,82.73
2023-05-07T06:06:08.738Z,82.91
2023-05-07T06:08:35.218Z,82.16
2023-05-07T06:11:03.344Z,81.83
2023-05-07T06:13:29.829Z,80.99
2023-05-07T06:15:56.447Z,81.94
2023-05-07T06:18:23.137Z,82.09
2023-05-07T06:20:49.802Z,81.98
2023-05-07T06:23:17.947Z,81.51
2023-05-07T06:25:50.363Z,81.88
2023-05-07T06:28:17.320Z,81.65
2023-05-07T06:30:43.856Z,81.40
2023-05-07T06:33:10.617Z,80.69
2023-05-07T06:35:36.988Z,79.85
2023-05-07T06:38:03.346Z,80.19
2023-05-07T06:40:29.768Z,80.02
2023-05-07T06:42:56.099Z,80.61
2023-05-07T06:45:22.536Z,80.15
2023-05-07T06:47:48.950Z,80.43
2023-05-07T06:50:17.553Z,80.61
2023-05-07T06:52:44.179Z,80.55
2023-05-07T06:55:10.557Z,80.49
2023-05-07T06:57:37.213Z,80.60
2023-05-07T07:00:05.220Z,80.50
2023-05-07T07:02:31.616Z,80.48
2023-05-07T07:04:58.072Z,80.86
2023-05-07T07:07:24.454Z,80.74
2023-05-07T07:09:50.942Z,80.89
2023-05-07T07:12:18.532Z,81.07
2023-05-07T07:14:44.884Z,81.09
2023-05-07T07:17:11.463Z,80.79
2023-05-07T07:19:38.598Z,79.80
2023-05-07T07:22:04.985Z,79.75
2023-05-07T07:24:31.361Z,79.35
2023-05-07T07:26:57.791Z,79.77
2023-05-07T07:29:24.526Z,80.02
2023-05-07T07:31:51.060Z,79.02
2023-05-07T07:34:17.462Z,79.50
2023-05-07T07:36:46.739Z,79.45
2023-05-07T07:39:13.874Z,79.40
2023-05-07T07:41:40.364Z,78.76
2023-05-07T07:44:08.482Z,78.80
2023-05-07T07:46:35.562Z,78.33
2023-05-07T07:49:01.941Z,77.19
2023-05-07T07:51:28.383Z,76.44
2023-05-07T07:53:54.817Z,75.67
2023-05-07T07:56:21.665Z,76.20
2023-05-07T07:58:48.053Z,75.08
2023-05-07T08:01:14.507Z,74.98
2023-05-07T08:03:41.015Z,75.42
2023-05-07T08:06:08.578Z,75.26
2023-05-07T08:08:38.115Z,74.60
2023-05-07T08:11:04.568Z,74.66
2023-05-07T08:13:31.049Z,74.45
2023-05-07T08:16:01.017Z,74.34
2023-05-07T08:18:29.351Z,72.91
2023-05-07T08:20:58.593Z,73.38
2023-05-07T08:23:28.252Z,73.12
2023-05-07T08:25:54.726Z,72.78
2023-05-07T08:29:08.828Z,72.77
2023-05-07T08:31:11.547Z,70.69
2023-05-07T08:33:39.435Z,70.04
2023-05-07T08:36:27.172Z,68.90
2023-05-07T08:38:55.890Z,68.91
2023-05-07T08:41:22.498Z,68.64
2023-05-07T08:43:53.310Z,67.02
2023-05-07T08:46:21.846Z,65.57
2023-05-07T08:48:55.929Z,65.69
2023-05-07T08:51:22.809Z,67.07
2023-05-07T08:53:51.880Z,64.16
2023-05-07T08:56:20.442Z,64.30
2023-05-07T08:58:49.016Z,64.74
2023-05-07T09:01:16.876Z,62.33
2023-05-07T09:03:48.355Z,63.75
2023-05-07T09:06:15.144Z,64.77
2023-05-07T09:08:41.634Z,65.91
2023-05-07T09:11:08.131Z,66.02
2023-05-07T09:13:37.005Z,63.33
2023-05-07T09:16:12.632Z,63.51
2023-05-07T09:18:45.837Z,63.37
2023-05-07T09:21:15.805Z,62.82
2023-05-07T09:23:43.066Z,62.73
2023-05-07T09:26:15.642Z,65.00
2023-05-07T09:28:42.913Z,64.52
2023-05-07T09:31:10.672Z,63.82
2023-05-07T09:33:37.442Z,63.98
2023-05-07T09:36:05.937Z,63.18
2023-05-07T09:38:36.178Z,64.31
2023-05-07T09:41:12.518Z,64.74
2023-05-07T09:43:40.029Z,62.86
2023-05-07T09:46:13.324Z,61.12
2023-05-07T09:48:41.375Z,61.54
2023-05-07T09:51:19.246Z,62.08
2023-05-07T09:53:47.155Z,62.97
2023-05-07T09:56:15.817Z,62.16
2023-05-07T09:58:42.922Z,61.85
2023-05-07T10:01:11.707Z,62.29
2023-05-07T10:03:41.371Z,61.44
2023-05-07T10:06:10.310Z,63.47
2023-05-07T10:08:37.352Z,62.37
2023-05-07T10:11:06.008Z,61.90
2023-05-07T10:13:36.876Z,62.22
2023-05-07T10:16:06.614Z,62.37
2023-05-07T10:18:34.036Z,61.93
2023-05-07T10:21:18.727Z,61.42
2023-05-07T10:24:18.933Z,60.61
2023-05-07T10:26:49.400Z,59.84
2023-05-07T10:30:04.030Z,61.80
2023-05-07T10:32:41.785Z,61.57
2023-05-07T10:35:15.041Z,61.94
2023-05-07T10:37:42.265Z,62.04
2023-05-07T10:40:10.721Z,62.51
2023-05-07T10:42:37.170Z,62.62
2023-05-07T10:45:15.041Z,62.57
2023-05-07T10:48:29.654Z,62.48
2023-05-07T10:51:20.462Z,61.52
2023-05-07T10:53:46.853Z,61.40
2023-05-07T10:56:22.255Z,59.32
2023-05-07T10:58:48.601Z,58.50
2023-05-07T11:01:15.697Z,59.41
2023-05-07T11:04:14.022Z,60.47
2023-05-07T11:06:41.097Z,59.05
2023-05-07T11:09:08.660Z,58.37
2023-05-07T11:11:56.969Z,58.71
2023-05-07T11:14:45.488Z,57.12
2023-05-07T11:17:12.600Z,57.39
2023-05-07T11:19:52.882Z,57.02
2023-05-07T11:22:38.069Z,57.09
2023-05-07T11:25:04.865Z,57.36
2023-05-07T11:27:31.210Z,57.24
2023-05-07T11:29:57.564Z,55.47
2023-05-07T11:32:25.095Z,55.52
2023-05-07T11:34:56.013Z,55.59
2023-05-07T11:37:24.007Z,55.71
2023-05-07T11:39:55.424Z,56.67
2023-05-07T11:42:31.827Z,56.88
2023-05-07T11:44:58.770Z,55.76
2023-05-07T11:47:26.200Z,57.63
2023-05-07T11:49:54.556Z,56.63
2023-05-07T11:52:22.657Z,53.36
2023-05-07T11:54:53.803Z,53.80
2023-05-07T11:57:20.847Z,55.11
2023-05-07T11:59:50.244Z,55.28
2023-05-07T12:02:19.144Z,53.59
2023-05-07T12:04:45.717Z,53.67
2023-05-07T12:07:14.494Z,51.55
2023-05-07T12:09:42.259Z,51.76
2023-05-07T12:12:19.334Z,50.25
2023-05-07T12:14:46.819Z,51.90
2023-05-07T12:17:15.309Z,53.15
2023-05-07T12:19:45.497Z,51.36
2023-05-07T12:22:12.793Z,53.63
2023-05-07T12:24:58.471Z,52.88
2023-05-07T12:27:26.733Z,49.28
2023-05-07T12:29:53.218Z,49.08
2023-05-07T12:32:21.954Z,48.60
2023-05-07T12:34:51.765Z,48.43
2023-05-07T12:37:23.600Z,50.02
2023-05-07T12:40:03.952Z,49.07
2023-05-07T12:42:36.065Z,49.42
2023-05-07T12:45:17.328Z,48.69
2023-05-07T12:47:48.332Z,46.55
2023-05-07T12:50:16.586Z,46.47
2023-05-07T12:52:45.296Z,47.14
2023-05-07T12:55:15.771Z,46.09
2023-05-07T12:57:49.363Z,47.95
2023-05-07T13:00:16.240Z,47.49
2023-05-07T13:02:47.151Z,45.71
2023-05-07T13:05:14.150Z,47.96
2023-05-07T13:07:41.648Z,49.53
2023-05-07T13:10:08.693Z,49.77
2023-05-07T13:12:35.943Z,51.94
2023-05-07T13:15:02.324Z,51.37
2023-05-07T13:17:28.792Z,52.01
2023-05-07T13:19:55.174Z,52.63
2023-05-07T13:22:21.530Z,52.19
2023-05-07T13:24:48.060Z,52.62
2023-05-07T13:27:14.380Z,53.10
2023-05-07T13:29:40.754Z,53.96
2023-05-07T13:32:07.257Z,53.85
2023-05-07T13:34:33.697Z,54.06
2023-05-07T13:37:00.171Z,54.95
2023-05-07T13:39:26.785Z,54.23
2023-05-07T13:41:53.224Z,56.16
2023-05-07T13:44:19.911Z,60.73
2023-05-07T13:46:46.467Z,64.27
2023-05-07T13:49:13.811Z,69.56
2023-05-07T13:51:41.357Z,71.88
2023-05-07T13:54:07.710Z,75.36
2023-05-07T13:56:34.363Z,75.90
2023-05-07T13:59:01.158Z,75.54
2023-05-07T14:01:28.455Z,76.69
2023-05-07T14:03:55.073Z,79.81
2023-05-07T14:06:21.448Z,81.72
2023-05-07T14:08:47.843Z,84.29
2023-05-07T14:11:14.360Z,87.27
2023-05-07T14:13:41.050Z,88.72
2023-05-07T14:16:07.477Z,90.36
2023-05-07T14:18:35.366Z,89.49
2023-05-07T14:21:01.775Z,91.51
2023-05-07T14:23:28.715Z,92.96
2023-05-07T14:25:55.536Z,94.16
2023-05-07T14:28:23.462Z,93.89
2023-05-07T14:30:50.055Z,94.37
2023-05-07T14:33:16.727Z,94.64
2023-05-07T14:35:48.459Z,95.92
2023-05-07T14:38:15.599Z,97.33
2023-05-07T14:40:45.871Z,97.60
2023-05-07T14:43:12.463Z,98.67
2023-05-07T14:45:39.563Z,99.32
2023-05-07T14:48:06.671Z,99.15
2023-05-07T14:50:35.401Z,100.00
2023-05-07T14:53:02.013Z,100.00
2023-05-07T14:55:29.071Z,100.00
2023-05-07T14:57:56.812Z,100.00
2023-05-07T15:00:23.551Z,98.91
2023-05-07T15:02:50.367Z,99.21
2023-05-07T15:05:19.593Z,100.00
2023-05-07T15:07:47.294Z,99.73
2023-05-07T15:10:16.234Z,98.89
2023-05-07T15:12:42.738Z,98.91
2023-05-07T15:15:10.141Z,98.20
2023-05-07T15:17:38.670Z,97.94
2023-05-07T15:20:06.024Z,96.70
2023-05-07T15:22:40.040Z,97.45
2023-05-07T15:25:06.752Z,98.02
2023-05-07T15:27:39.917Z,96.17
2023-05-07T15:30:07.021Z,95.74
2023-05-07T15:32:35.696Z,95.53
2023-05-07T15:35:06.464Z,94.81
2023-05-07T15:37:36.187Z,95.62
2023-05-07T15:40:03.553Z,94.67
2023-05-07T15:42:30.137Z,94.50
2023-05-07T15:45:08.589Z,94.30
2023-05-07T15:47:37.899Z,93.95
2023-05-07T15:50:05.170Z,93.98
2023-05-07T15:52:52.052Z,93.94
2023-05-07T15:55:18.738Z,92.92
2023-05-07T15:57:52.344Z,94.25
2023-05-07T16:00:22.981Z,91.72
2023-05-07T16:02:52.033Z,91.70
2023-05-07T16:05:25.059Z,91.05
2023-05-07T16:07:52.756Z,91.79
2023-05-07T16:10:21.732Z,91.52
2023-05-07T16:12:48.316Z,89.45
2023-05-07T16:15:15.913Z,89.80
2023-05-07T16:17:42.766Z,90.44
2023-05-07T16:20:16.773Z,90.40
2023-05-07T16:22:53.734Z,90.46
2023-05-07T16:25:22.704Z,90.20
2023-05-07T16:27:49.279Z,89.91
2023-05-07T16:30:21.149Z,89.89
2023-05-07T16:32:50.266Z,89.66
2023-05-07T16:35:17.010Z,89.21
2023-05-07T16:37:43.591Z,86.17
2023-05-07T16:40:10.662Z,87.32
2023-05-07T16:42:37.361Z,89.10
2023-05-07T16:45:07.075Z,89.84
2023-05-07T16:47:33.503Z,87.12
2023-05-07T16:50:00.872Z,87.05
2023-05-07T16:52:29.726Z,85.16
2023-05-07T16:54:58.394Z,86.42
2023-05-07T16:57:25.428Z,86.59
2023-05-07T16:59:55.384Z,87.89
2023-05-07T17:02:22.047Z,87.08
2023-05-07T17:04:48.553Z,87.95
2023-05-07T17:07:18.206Z,90.08
2023-05-07T17:09:44.872Z,90.47
2023-05-07T17:12:11.266Z,90.22
2023-05-07T17:14:37.647Z,89.96
2023-05-07T17:17:04.113Z,90.03
2023-05-07T17:19:30.537Z,90.56
2023-05-07T17:21:57.493Z,89.00
2023-05-07T17:24:23.867Z,89.88
2023-05-07T17:26:50.339Z,90.37
2023-05-07T17:29:19.057Z,89.21
2023-05-07T17:31:46.421Z,89.64
2023-05-07T17:34:25.531Z,89.82
2023-05-07T17:36:58.984Z,89.91
2023-05-07T17:39:25.411Z,90.50
2023-05-07T17:41:51.866Z,90.29
2023-05-07T17:44:18.769Z,90.73
2023-05-07T17:46:47.964Z,90.78
2023-05-07T17:49:16.201Z,90.39
2023-05-07T17:51:53.288Z,90.76
2023-05-07T17:54:32.651Z,90.91
2023-05-07T17:57:01.294Z,89.84
2023-05-07T17:59:29.624Z,90.61
2023-05-07T18:01:56.091Z,90.63
2023-05-07T18:04:24.479Z,92.47
2023-05-07T18:06:50.991Z,93.31
2023-05-07T18:09:17.393Z,93.28
2023-05-07T18:11:43.813Z,92.82
2023-05-07T18:14:10.414Z,92.71
2023-05-07T18:16:36.911Z,93.06
2023-05-07T18:19:03.311Z,92.59
2023-05-07T18:21:29.816Z,92.42
2023-05-07T18:23:56.187Z,93.07
2023-05-07T18:26:22.574Z,93.51
2023-05-07T18:28:48.960Z,94.06
2023-05-07T18:31:15.572Z,94.25
2023-05-07T18:33:42.024Z,93.20
2023-05-07T18:36:08.404Z,93.37
2023-05-07T18:38:34.814Z,92.58
2023-05-07T18:41:05.297Z,93.21
2023-05-07T18:43:32.185Z,94.28
2023-05-07T18:45:58.653Z,94.03
2023-05-07T18:48:25.337Z,94.34
2023-05-07T18:50:51.760Z,93.21
2023-05-07T18:53:18.210Z,94.03
2023-05-07T18:55:49.435Z,93.86
2023-05-07T18:58:16.914Z,94.43
2023-05-07T19:00:43.277Z,94.69
2023-05-07T19:03:09.813Z,94.68
2023-05-07T19:05:36.255Z,95.15
2023-05-07T19:08:02.822Z,94.21
2023-05-07T19:10:29.187Z,94.01
2023-05-07T19:12:57.389Z,93.47
2023-05-07T19:15:23.802Z,93.80
2023-05-07T19:17:51.001Z,93.97
2023-05-07T19:20:17.802Z,94.25
2023-05-07T19:22:44.479Z,93.78
2023-05-07T19:25:13.295Z,94.23
2023-05-07T19:27:40.379Z,93.89
2023-05-07T19:30:09.121Z,93.84
2023-05-07T19:32:35.880Z,93.76
2023-05-07T19:35:02.681Z,93.70
2023-05-07T19:37:30.135Z,94.10
2023-05-07T19:39:56.778Z,93.76
2023-05-07T19:42:23.224Z,93.98
2023-05-07T19:44:49.609Z,94.43
2023-05-07T19:47:16.564Z,92.87
2023-05-07T19:49:42.910Z,92.76
2023-05-07T19:52:09.228Z,92.62
2023-05-07T19:54:35.834Z,93.36
2023-05-07T19:57:02.317Z,94.18
2023-05-07T19:59:28.805Z,93.91
2023-05-07T20:01:55.267Z,93.93
2023-05-07T20:04:21.692Z,93.21
2023-05-07T20:06:48.173Z,92.76
2023-05-07T20:09:14.679Z,93.39
2023-05-07T20:11:41.132Z,92.96
2023-05-07T20:14:09.466Z,92.83
2023-05-07T20:16:36.027Z,92.78
2023-05-07T20:19:02.640Z,91.60
2023-05-07T20:21:29.082Z,93.29
2023-05-07T20:23:55.704Z,93.50
2023-05-07T20:26:22.270Z,93.77
2023-05-07T20:28:48.596Z,93.18
2023-05-07T20:31:16.288Z,93.24
2023-05-07T20:33:42.708Z,92.96
2023-05-07T20:36:09.128Z,92.83
2023-05-07T20:38:35.646Z,92.75
2023-05-07T20:41:09.752Z,92.55
2023-05-07T20:43:37.540Z,92.19
2023-05-07T20:46:05.426Z,91.47
2023-05-07T20:48:31.912Z,91.59
2023-05-07T20:50:59.650Z,91.95
2023-05-07T20:53:29.593Z,93.03
2023-05-07T20:55:58.963Z,93.38
2023-05-07T20:58:27.774Z,93.04
2023-05-07T21:00:55.488Z,92.81
2023-05-07T21:03:25.263Z,93.10
2023-05-07T21:05:52.723Z,93.19
2023-05-07T21:08:19.753Z,92.53
2023-05-07T21:10:48.367Z,91.27
2023-05-07T21:13:15.142Z,91.42
2023-05-07T21:15:42.746Z,91.82
2023-05-07T21:18:12.541Z,92.14
2023-05-07T21:20:39.065Z,92.12
2023-05-07T21:23:06.060Z,92.34
2023-05-07T21:25:32.456Z,92.60
2023-05-07T21:27:59.225Z,92.05
2023-05-07T21:30:25.756Z,91.56
2023-05-07T21:32:54.254Z,91.52
2023-05-07T21:35:20.752Z,92.32
2023-05-07T21:37:47.228Z,92.76
2023-05-07T21:40:14.046Z,92.23
2023-05-07T21:42:40.733Z,92.00
2023-05-07T21:45:07.426Z,91.71
2023-05-07T21:47:33.855Z,91.23
2023-05-07T21:50:01.048Z,91.08
2023-05-07T21:52:27.758Z,91.57
2023-05-07T21:54:54.372Z,92.94
2023-05-07T21:57:21.076Z,93.66
2023-05-07T21:59:47.459Z,92.62
2023-05-07T22:02:13.953Z,93.15
2023-05-07T22:04:40.443Z,93.18
2023-05-07T22:07:06.979Z,92.93
2023-05-07T22:09:35.661Z,92.55
2023-05-07T22:12:03.291Z,92.52
2023-05-07T22:14:29.689Z,92.07
2023-05-07T22:16:56.307Z,91.58
2023-05-07T22:19:22.739Z,91.18
2023-05-07T22:21:49.235Z,91.18
2023-05-07T22:24:15.584Z,91.41
2023-05-07T22:26:42.051Z,91.60
2023-05-07T22:29:08.468Z,90.97
2023-05-07T22:31:34.887Z,90.57
2023-05-07T22:34:01.544Z,90.28
2023-05-07T22:36:28.060Z,90.95
2023-05-07T22:38:55.170Z,90.88
2023-05-07T22:41:21.567Z,91.15
2023-05-07T22:43:47.970Z,90.83
2023-05-07T22:46:14.478Z,90.75
2023-05-07T22:48:40.985Z,89.87
2023-05-07T22:51:13.896Z,89.89
2023-05-07T22:53:43.143Z,91.49
2023-05-07T22:56:09.766Z,92.30
2023-05-07T22:58:36.246Z,92.43
2023-05-07T23:01:02.728Z,92.33
2023-05-07T23:03:30.191Z,92.24
2023-05-07T23:05:56.600Z,91.55
2023-05-07T23:08:23.208Z,91.63
2023-05-07T23:10:52.450Z,91.81
2023-05-07T23:13:19.048Z,92.56
2023-05-07T23:15:45.504Z,93.23
2023-05-07T23:18:12.070Z,93.35
2023-05-07T23:20:41.250Z,92.50
2023-05-07T23:23:07.654Z,92.73
2023-05-07T23:25:34.039Z,92.74
2023-05-07T23:28:00.574Z,92.49
2023-05-07T23:30:26.964Z,91.57
2023-05-07T23:32:53.643Z,91.67
2023-05-07T23:35:20.265Z,92.25
2023-05-07T23:37:46.659Z,92.97
2023-05-07T23:40:13.410Z,92.00
2023-05-07T23:42:40.049Z,91.08
2023-05-07T23:45:06.777Z,91.40
2023-05-07T23:47:33.560Z,91.59
2023-05-07T23:49:59.963Z,91.49
2023-05-07T23:52:26.351Z,91.38
2023-05-07T23:54:52.843Z,90.86
2023-05-07T23:57:20.196Z,91.03
2023-05-07T23:59:46.609Z,91.38
